Time;durP1;ratioP1;P1;durP2;ratioP2;P2;SDS_P1;SDS_P2;PMS_P1;PMS_P2;Temp;Humidity;BMP_temperature;BMP_pressure;BME280_temperature;BME280_humidity;BME280_pressure;Samples;Min_cycle;Max_cycle;Signal;HPM_P1;HPM_P2
2023/12/16 00:02:12;;;;;;;25.90;3.88;;;;;;;8.23;100.00;103605.78;10433357;28;20055;-59
2023/12/16 00:07:34;;;;;;;24.08;4.25;;;;;;;8.22;100.00;103609.22;10427444;28;20045;-59
2023/12/16 00:12:56;;;;;;;18.42;4.13;;;;;;;8.22;100.00;103605.75;10430174;28;20041;-60
2023/12/16 00:18:18;;;;;;;17.63;4.13;;;;;;;8.19;100.00;103603.97;10428277;28;20033;-59
2023/12/16 00:23:40;;;;;;;16.88;4.35;;;;;;;8.24;100.00;103607.56;10431062;28;20390;-60
2023/12/16 00:29:01;;;;;;;20.92;4.60;;;;;;;8.21;100.00;103602.31;10431802;28;20047;-59
2023/12/16 00:34:23;;;;;;;20.50;4.40;;;;;;;8.22;100.00;103618.66;10415469;28;20053;-59
2023/12/16 00:39:44;;;;;;;20.50;4.38;;;;;;;8.23;100.00;103626.44;10433821;28;20133;-60
2023/12/16 00:45:07;;;;;;;23.60;4.40;;;;;;;8.29;100.00;103625.75;10429148;28;20041;-60
2023/12/16 00:50:28;;;;;;;22.20;4.50;;;;;;;8.28;100.00;103606.81;10422223;28;20067;-60
2023/12/16 00:55:50;;;;;;;17.95;4.50;;;;;;;8.26;100.00;103616.22;10436006;28;20528;-60
2023/12/16 01:01:15;;;;;;;22.73;4.63;;;;;;;8.26;100.00;103610.19;10439353;28;20052;-59
2023/12/16 01:06:37;;;;;;;15.10;3.75;;;;;;;8.29;100.00;103618.88;10430579;28;20132;-60
2023/12/16 01:11:58;;;;;;;20.30;4.05;;;;;;;8.30;100.00;103607.72;10433321;28;20140;-60
2023/12/16 01:17:20;;;;;;;16.88;3.60;;;;;;;8.33;100.00;103606.94;10416352;28;20088;-59
2023/12/16 01:22:42;;;;;;;14.73;3.72;;;;;;;8.30;100.00;103607.72;10431610;28;20410;-59
2023/12/16 01:28:04;;;;;;;16.00;3.50;;;;;;;8.33;100.00;103592.34;10430545;28;20133;-59
2023/12/16 01:33:26;;;;;;;16.52;3.40;;;;;;;8.32;100.00;103595.72;10430802;28;20048;-60
2023/12/16 01:38:48;;;;;;;16.77;3.60;;;;;;;8.35;100.00;103613.00;10430026;28;20115;-59
2023/12/16 01:44:09;;;;;;;12.60;3.03;;;;;;;8.38;99.22;103611.38;10422386;28;20055;-59
2023/12/16 01:49:31;;;;;;;10.98;2.90;;;;;;;8.41;98.74;103608.84;10425321;28;20041;-60
2023/12/16 01:54:53;;;;;;;16.77;3.33;;;;;;;8.41;97.67;103605.38;10424946;28;20520;-59
2023/12/16 02:00:16;;;;;;;11.80;2.55;;;;;;;8.44;97.47;103626.97;10442791;28;20044;-59
2023/12/16 02:05:38;;;;;;;12.70;3.08;;;;;;;8.50;97.02;103632.28;10428783;28;20403;-59
2023/12/16 02:10:59;;;;;;;15.02;3.08;;;;;;;8.54;96.62;103649.59;10436201;28;20437;-59
2023/12/16 02:16:21;;;;;;;14.52;2.83;;;;;;;8.53;96.99;103621.16;10426294;28;20053;-59
2023/12/16 02:21:43;;;;;;;10.93;2.90;;;;;;;8.46;96.25;103617.56;10429176;28;20055;-60
2023/12/16 02:27:04;;;;;;;13.10;2.90;;;;;;;8.46;96.08;103599.50;10422588;28;20412;-60
2023/12/16 02:32:26;;;;;;;11.48;2.33;;;;;;;8.47;95.73;103615.84;10436587;28;20045;-59
2023/12/16 02:37:47;;;;;;;12.68;2.60;;;;;;;8.46;96.23;103611.56;10440775;28;20060;-60
2023/12/16 02:43:09;;;;;;;11.32;2.22;;;;;;;8.46;95.13;103612.41;10452888;28;20049;-59
2023/12/16 02:48:31;;;;;;;13.25;2.22;;;;;;;8.47;95.84;103616.75;10443499;28;20045;-59
2023/12/16 02:53:53;;;;;;;12.38;2.08;;;;;;;8.47;94.99;103606.41;10434273;28;20049;-60
2023/12/16 02:59:14;;;;;;;15.98;2.42;;;;;;;8.44;94.91;103601.16;10452266;28;20063;-59
2023/12/16 03:04:36;;;;;;;10.98;2.25;;;;;;;8.40;94.00;103599.38;10445076;28;20060;-60
2023/12/16 03:09:58;;;;;;;13.13;2.45;;;;;;;8.33;94.49;103602.66;10440821;28;20052;-59
2023/12/16 03:15:20;;;;;;;15.95;2.72;;;;;;;8.26;94.30;103600.72;10437700;28;20556;-59
2023/12/16 03:20:41;;;;;;;11.27;2.20;;;;;;;8.22;94.52;103593.75;10443497;28;20128;-59
2023/12/16 03:26:03;;;;;;;12.30;2.53;;;;;;;8.15;95.04;103586.66;10435414;28;24710;-59
2023/12/16 03:31:25;;;;;;;10.07;2.83;;;;;;;8.05;94.50;103595.91;10438717;28;20037;-59
2023/12/16 03:36:46;;;;;;;11.90;2.30;;;;;;;8.01;94.68;103598.34;10451201;28;20056;-59
2023/12/16 03:42:08;;;;;;;13.75;2.45;;;;;;;7.93;94.66;103590.44;10419882;28;20041;-59
2023/12/16 03:47:29;;;;;;;9.13;2.33;;;;;;;7.85;94.48;103599.69;10426467;28;20084;-59
2023/12/16 03:52:51;;;;;;;10.23;2.30;;;;;;;7.80;95.30;103583.22;10430329;28;20053;-60
2023/12/16 03:58:13;;;;;;;13.45;2.80;;;;;;;7.73;95.01;103590.75;10431160;28;20049;-59
2023/12/16 04:03:34;;;;;;;12.63;2.50;;;;;;;7.67;95.33;103585.44;10431018;28;20045;-59
2023/12/16 04:08:56;;;;;;;14.55;2.63;;;;;;;7.60;95.55;103576.66;10432329;28;20050;-59
2023/12/16 04:14:17;;;;;;;9.68;2.42;;;;;;;7.56;96.03;103586.88;10433308;28;20056;-59
2023/12/16 04:19:49;;;;;;;12.82;2.78;;;;;;;7.52;95.75;103579.88;10426403;28;20086;-59
2023/12/16 04:25:11;;;;;;;13.80;2.67;;;;;;;7.49;95.58;103595.28;10439909;28;20041;-59
2023/12/16 04:30:33;;;;;;;11.20;2.78;;;;;;;7.47;95.63;103602.09;10427973;28;20053;-60
2023/12/16 04:35:54;;;;;;;13.32;2.88;;;;;;;7.45;95.37;103596.88;10433922;28;20056;-60
2023/12/16 04:41:16;;;;;;;14.80;2.42;;;;;;;7.42;95.71;103608.78;10429587;28;20049;-59
2023/12/16 04:46:38;;;;;;;10.68;2.85;;;;;;;7.41;95.88;103596.75;10435610;28;20067;-59
2023/12/16 04:51:59;;;;;;;18.48;3.25;;;;;;;7.41;95.46;103605.34;10419301;28;20049;-59
2023/12/16 04:57:21;;;;;;;14.55;2.63;;;;;;;7.42;95.30;103617.38;10425922;28;20049;-59
2023/12/16 05:02:43;;;;;;;14.32;2.63;;;;;;;7.42;95.33;103613.94;10432323;28;20055;-60
2023/12/16 05:08:04;;;;;;;10.05;2.65;;;;;;;7.40;95.52;103613.06;10427906;28;20076;-59
2023/12/16 05:13:26;;;;;;;10.98;2.90;;;;;;;7.38;95.21;103601.84;10437370;28;20055;-59
2023/12/16 05:18:48;;;;;;;18.77;2.53;;;;;;;7.37;95.50;103610.38;10429254;28;20084;-60
2023/12/16 05:24:09;;;;;;;11.00;2.28;;;;;;;7.32;95.31;103612.84;10430294;28;20678;-60
2023/12/16 05:29:31;;;;;;;14.02;3.10;;;;;;;7.29;95.78;103606.72;10431200;28;20045;-59
2023/12/16 05:34:54;;;;;;;14.75;3.00;;;;;;;7.30;95.40;103613.59;10445646;28;20057;-60
2023/12/16 05:40:16;;;;;;;15.85;2.65;;;;;;;7.30;95.72;103619.63;10431096;28;20047;-60
2023/12/16 05:45:38;;;;;;;15.32;2.90;;;;;;;7.29;95.46;103622.19;10430054;28;20504;-60
2023/12/16 05:50:59;;;;;;;13.73;3.20;;;;;;;7.31;95.79;103635.97;10428916;28;20045;-59
2023/12/16 05:56:21;;;;;;;17.30;2.67;;;;;;;7.35;95.49;103630.06;10431697;28;20045;-59
2023/12/16 06:01:42;;;;;;;15.52;2.80;;;;;;;7.41;95.60;103627.66;10437965;28;20080;-59
2023/12/16 06:07:04;;;;;;;15.10;3.30;;;;;;;7.46;95.64;103623.50;10434164;28;20498;-59
2023/12/16 06:12:26;;;;;;;19.88;3.40;;;;;;;7.48;95.79;103621.84;10425625;28;20045;-59
2023/12/16 06:17:47;;;;;;;14.65;3.35;;;;;;;7.54;95.40;103619.44;10434042;28;20371;-59
2023/12/16 06:23:09;;;;;;;18.38;3.08;;;;;;;7.58;95.37;103636.75;10433082;28;20053;-59
2023/12/16 06:28:31;;;;;;;15.13;3.15;;;;;;;7.62;95.77;103641.13;10418371;28;20041;-60
2023/12/16 06:33:53;;;;;;;19.20;3.63;;;;;;;7.66;95.60;103640.38;10424484;28;20120;-60
2023/12/16 06:39:16;;;;;;;15.30;3.08;;;;;;;7.69;96.00;103640.47;10426301;28;20049;-60
2023/12/16 06:44:37;;;;;;;14.35;3.58;;;;;;;7.69;96.08;103631.03;10433539;28;20044;-59
2023/12/16 06:49:59;;;;;;;14.55;3.30;;;;;;;7.73;96.30;103639.72;10429649;28;20052;-59
2023/12/16 06:55:21;;;;;;;20.25;3.63;;;;;;;7.74;96.35;103637.19;10432410;28;20049;-59
2023/12/16 07:00:42;;;;;;;18.80;4.10;;;;;;;7.79;96.22;103634.72;10423203;28;20069;-59
2023/12/16 07:06:05;;;;;;;22.10;4.10;;;;;;;7.80;96.66;103628.75;10430110;28;20063;-59
2023/12/16 07:11:27;;;;;;;21.73;3.90;;;;;;;7.80;97.06;103621.88;10424322;28;20055;-59
2023/12/16 07:16:48;;;;;;;16.25;3.60;;;;;;;7.84;97.18;103625.41;10424656;28;20063;-60
2023/12/16 07:22:16;;;;;;;13.37;4.23;;;;;;;7.85;97.09;103637.47;10438250;28;20437;-59
2023/12/16 07:27:38;;;;;;;26.73;4.28;;;;;;;7.85;97.17;103637.47;10430439;28;20049;-59
2023/12/16 07:33:00;;;;;;;19.00;4.40;;;;;;;7.86;97.29;103628.91;10427401;28;20041;-59
2023/12/16 07:38:23;;;;;;;19.70;4.28;;;;;;;7.88;96.87;103632.38;10437318;28;20056;-59
2023/12/16 07:43:44;;;;;;;20.15;4.47;;;;;;;7.87;97.01;103636.66;10429958;28;20542;-59
2023/12/16 07:49:06;;;;;;;20.92;3.88;;;;;;;7.88;97.58;103622.06;10429204;28;20402;-60
2023/12/16 07:54:28;;;;;;;21.33;4.03;;;;;;;7.88;97.57;103616.91;10434728;28;20057;-59
2023/12/16 07:59:49;;;;;;;13.70;4.00;;;;;;;7.86;97.70;103618.59;10430572;28;20067;-59
2023/12/16 08:05:14;;;;;;;18.77;4.50;;;;;;;7.88;98.16;103624.66;10427543;28;20048;-60
2023/12/16 08:10:36;;;;;;;23.27;4.75;;;;;;;7.92;97.85;103644.53;10424693;28;20066;-59
2023/12/16 08:15:59;;;;;;;19.95;4.40;;;;;;;7.92;98.45;103654.84;10427121;28;20164;-59
2023/12/16 08:21:21;;;;;;;23.23;4.65;;;;;;;7.86;99.23;103649.50;10431384;28;20056;-59
2023/12/16 08:26:42;;;;;;;22.05;4.63;;;;;;;7.89;99.45;103645.31;10435023;28;20144;-59
2023/12/16 08:32:04;;;;;;;26.60;5.38;;;;;;;7.87;100.00;103631.50;10425700;28;20048;-59
2023/12/16 08:37:26;;;;;;;20.42;5.07;;;;;;;7.91;99.88;103625.59;10430237;28;20049;-59
2023/12/16 08:42:48;;;;;;;16.05;4.50;;;;;;;7.97;99.78;103646.41;10429037;28;20044;-59
2023/12/16 08:48:09;;;;;;;18.40;5.07;;;;;;;8.05;99.60;103637.16;10415549;28;20053;-59
2023/12/16 08:53:31;;;;;;;29.73;5.15;;;;;;;8.06;99.59;103661.22;10435870;28;20049;-59
2023/12/16 08:58:53;;;;;;;23.48;5.53;;;;;;;8.07;100.00;103655.25;10428262;28;20516;-60
2023/12/16 09:04:14;;;;;;;24.15;5.00;;;;;;;8.11;100.00;103664.81;10428165;28;20059;-61
2023/12/16 09:09:37;;;;;;;27.00;6.38;;;;;;;8.12;100.00;103679.44;10423911;28;20056;-59
2023/12/16 09:14:59;;;;;;;34.13;6.78;;;;;;;8.16;100.00;103673.53;10430609;28;20062;-59
2023/12/16 09:20:20;;;;;;;25.00;6.40;;;;;;;8.18;100.00;103672.72;10428954;28;20484;-59
2023/12/16 09:25:42;;;;;;;27.08;6.25;;;;;;;8.21;100.00;103659.03;10426368;28;20063;-60
2023/12/16 09:31:04;;;;;;;25.55;6.20;;;;;;;8.23;100.00;103666.81;10420951;28;20057;-59
2023/12/16 09:36:29;;;;;;;32.28;7.18;;;;;;;8.23;100.00;103669.41;10420913;28;20041;-59
2023/12/16 09:41:51;;;;;;;29.48;7.38;;;;;;;8.26;100.00;103672.09;10415977;28;20441;-59
2023/12/16 09:47:14;;;;;;;31.65;7.93;;;;;;;8.24;100.00;103661.72;10424811;28;20391;-59
2023/12/16 09:52:38;;;;;;;36.15;8.15;;;;;;;8.17;100.00;103649.47;10422602;28;20489;-59
2023/12/16 09:58:02;;;;;;;36.45;8.13;;;;;;;8.19;100.00;103663.28;10425740;28;20056;-59
2023/12/16 10:03:24;;;;;;;39.38;9.13;;;;;;;8.18;100.00;103646.09;10419053;28;20476;-59
2023/12/16 10:08:47;;;;;;;31.08;9.85;;;;;;;8.22;100.00;103644.44;10421084;28;20040;-59
2023/12/16 10:14:08;;;;;;;32.60;9.15;;;;;;;8.29;100.00;103642.09;10428817;28;20488;-59
2023/12/16 10:19:34;;;;;;;34.72;9.55;;;;;;;8.32;100.00;103631.84;10420933;28;20053;-60
2023/12/16 10:24:56;;;;;;;35.58;10.18;;;;;;;8.37;100.00;103627.66;10424192;28;20057;-66
2023/12/16 10:30:20;;;;;;;36.88;9.30;;;;;;;8.37;100.00;103616.50;10421200;28;20144;-60
2023/12/16 10:35:42;;;;;;;37.42;10.15;;;;;;;8.46;100.00;103607.25;10428702;28;20037;-60
2023/12/16 10:41:04;;;;;;;37.30;9.90;;;;;;;8.44;100.00;103611.47;10419516;28;20045;-60
2023/12/16 10:46:34;;;;;;;35.63;10.30;;;;;;;8.46;100.00;103594.34;10426115;28;20045;-60
2023/12/16 10:52:20;;;;;;;29.75;9.07;;;;;;;8.47;100.00;103572.88;10440629;28;20060;-59
2023/12/16 10:57:48;;;;;;;32.55;10.00;;;;;;;8.50;100.00;103567.78;10426566;28;20053;-60
2023/12/16 11:03:22;;;;;;;35.88;9.85;;;;;;;8.48;100.00;103561.69;10413240;28;20045;-59
2023/12/16 11:08:45;;;;;;;38.35;9.70;;;;;;;8.48;100.00;103551.38;10421929;28;20138;-60
2023/12/16 11:14:07;;;;;;;39.55;9.63;;;;;;;8.48;100.00;103548.81;10431674;28;20057;-60
2023/12/16 11:19:35;;;;;;;38.05;10.15;;;;;;;8.46;100.00;103540.16;10430037;28;20099;-60
2023/12/16 11:24:58;;;;;;;32.83;10.23;;;;;;;8.47;100.00;103515.22;10433750;28;20051;-60
2023/12/16 11:30:21;;;;;;;40.63;10.30;;;;;;;8.44;100.00;103523.75;10425900;28;20080;-60
2023/12/16 11:35:47;;;;;;;36.85;9.80;;;;;;;8.45;100.00;103497.13;10436675;28;20055;-60
2023/12/16 11:41:10;;;;;;;37.05;10.68;;;;;;;8.43;100.00;103506.56;10430585;28;20052;-60
2023/12/16 11:46:42;;;;;;;39.60;10.30;;;;;;;8.45;100.00;103507.47;10435258;28;20045;-60
2023/12/16 11:52:04;;;;;;;38.97;10.75;;;;;;;8.43;100.00;103501.41;10430328;28;20041;-60
2023/12/16 11:57:27;;;;;;;40.85;10.50;;;;;;;8.47;100.00;103492.88;10432425;28;20041;-60
2023/12/16 12:02:53;;;;;;;32.72;9.93;;;;;;;8.49;100.00;103496.38;10436080;28;20050;-60
2023/12/16 12:08:15;;;;;;;34.78;10.52;;;;;;;8.53;100.00;103503.34;10434095;28;20078;-60
2023/12/16 12:13:37;;;;;;;39.38;11.38;;;;;;;8.56;100.00;103492.19;10424668;28;20056;-61
2023/12/16 12:19:01;;;;;;;31.55;10.40;;;;;;;8.56;100.00;103508.56;10421878;28;20052;-60
2023/12/16 12:24:23;;;;;;;33.38;10.80;;;;;;;8.63;100.00;103500.09;10427790;28;20141;-60
2023/12/16 12:30:16;;;;;;;33.33;10.82;;;;;;;8.61;100.00;103501.78;10431406;28;20045;-60
2023/12/16 12:35:37;;;;;;;35.50;10.88;;;;;;;8.61;100.00;103506.94;10424929;28;20076;-59
2023/12/16 12:41:02;;;;;;;33.17;11.35;;;;;;;8.64;100.00;103501.88;10429290;28;20070;-60
2023/12/16 12:46:25;;;;;;;34.05;12.10;;;;;;;8.65;100.00;103498.44;10420355;28;20048;-60
2023/12/16 12:51:50;;;;;;;31.25;11.23;;;;;;;8.64;100.00;103486.38;10419373;28;20133;-60
2023/12/16 12:57:20;;;;;;;30.63;11.38;;;;;;;8.68;100.00;103497.63;10428071;28;20049;-60
2023/12/16 13:02:41;;;;;;;28.13;12.10;;;;;;;8.65;100.00;103506.19;10418651;28;20045;-60
2023/12/16 13:08:05;;;;;;;27.30;10.90;;;;;;;8.69;100.00;103494.22;10428881;28;20060;-60
2023/12/16 13:13:27;;;;;;;26.52;10.88;;;;;;;8.74;100.00;103492.59;10426851;28;20037;-60
2023/12/16 13:18:52;;;;;;;22.63;10.40;;;;;;;8.76;100.00;103478.88;10426020;28;20049;-60
2023/12/16 13:24:14;;;;;;;27.83;10.30;;;;;;;8.77;100.00;103488.34;10422254;28;20477;-60
2023/12/16 13:29:36;;;;;;;24.10;10.25;;;;;;;8.82;100.00;103481.59;10428070;28;20405;-60
2023/12/16 13:34:58;;;;;;;18.63;9.45;;;;;;;8.81;100.00;103485.00;10427538;28;20095;-60
2023/12/16 13:40:20;;;;;;;14.73;8.70;;;;;;;8.80;100.00;103472.94;10424486;28;20053;-60
2023/12/16 13:45:42;;;;;;;16.00;8.73;;;;;;;8.78;100.00;103474.63;10421701;28;20049;-60
2023/12/16 13:51:03;;;;;;;18.40;9.52;;;;;;;8.81;100.00;103468.63;10411644;28;20045;-60
2023/12/16 13:56:25;;;;;;;19.17;9.27;;;;;;;8.77;100.00;103454.78;10399678;28;20139;-61
2023/12/16 14:01:47;;;;;;;24.02;9.98;;;;;;;8.76;100.00;103460.81;10429546;28;20041;-60
2023/12/16 14:07:08;;;;;;;19.80;9.68;;;;;;;8.80;100.00;103451.41;10418520;28;20804;-60
2023/12/16 14:12:30;;;;;;;17.15;9.80;;;;;;;8.81;100.00;103461.75;10430681;28;20041;-59
2023/12/16 14:17:51;;;;;;;16.75;8.60;;;;;;;8.83;100.00;103452.34;10423638;28;20068;-61
2023/12/16 14:23:13;;;;;;;17.83;9.13;;;;;;;8.87;100.00;103469.63;10434115;28;20044;-60
2023/12/16 14:28:35;;;;;;;14.63;8.02;;;;;;;8.92;100.00;103473.16;10415940;28;20536;-60
2023/12/16 14:33:56;;;;;;;16.27;8.07;;;;;;;8.93;100.00;103474.94;10422481;28;20045;-61
2023/12/16 14:39:18;;;;;;;15.57;8.35;;;;;;;8.95;100.00;103462.03;10422019;28;20133;-60
2023/12/16 14:44:40;;;;;;;14.40;8.55;;;;;;;8.98;100.00;103462.97;10422365;28;20048;-61
2023/12/16 14:50:02;;;;;;;12.20;8.20;;;;;;;8.98;100.00;103470.72;10427128;28;20049;-59
2023/12/16 14:55:25;;;;;;;16.33;8.48;;;;;;;8.99;100.00;103464.69;10419950;28;20408;-61
2023/12/16 15:00:47;;;;;;;15.85;8.45;;;;;;;8.97;100.00;103450.88;10433771;28;20053;-59
2023/12/16 15:06:08;;;;;;;15.93;9.05;;;;;;;8.95;100.00;103452.56;10422407;28;20084;-59
2023/12/16 15:11:43;;;;;;;15.82;9.35;;;;;;;8.99;100.00;103449.19;10417374;28;20128;-59
2023/12/16 15:17:05;;;;;;;18.98;10.25;;;;;;;8.99;100.00;103438.88;10412362;28;20077;-60
2023/12/16 15:22:26;;;;;;;19.17;11.30;;;;;;;9.00;100.00;103425.13;10410273;28;20041;-59
2023/12/16 15:27:48;;;;;;;19.55;11.13;;;;;;;9.03;100.00;103435.50;10420471;28;20045;-60
2023/12/16 15:33:09;;;;;;;21.67;11.48;;;;;;;9.03;100.00;103451.00;10418881;28;20149;-61
2023/12/16 15:38:31;;;;;;;21.90;12.43;;;;;;;9.05;100.00;103454.47;10423468;28;20053;-59
2023/12/16 15:43:53;;;;;;;22.65;12.70;;;;;;;9.04;100.00;103439.84;10431404;28;20072;-59
2023/12/16 15:49:17;;;;;;;19.60;12.25;;;;;;;9.05;100.00;103420.91;10420427;28;20045;-59
2023/12/16 15:54:41;;;;;;;23.33;12.73;;;;;;;9.06;100.00;103420.06;10425801;28;20048;-59
2023/12/16 16:00:03;;;;;;;18.88;11.10;;;;;;;9.12;100.00;103439.97;10422369;28;20131;-59
2023/12/16 16:05:26;;;;;;;18.63;10.95;;;;;;;9.11;100.00;103444.28;10434726;28;20076;-59
2023/12/16 16:10:48;;;;;;;19.35;11.90;;;;;;;9.10;100.00;103450.28;10436325;28;20132;-59
2023/12/16 16:16:10;;;;;;;19.25;11.73;;;;;;;9.16;100.00;103456.41;10427617;28;20045;-59
2023/12/16 16:21:32;;;;;;;16.75;11.25;;;;;;;9.20;100.00;103468.50;10428278;28;20037;-59
2023/12/16 16:26:53;;;;;;;18.80;12.07;;;;;;;9.17;100.00;103453.84;10418253;28;20052;-60
2023/12/16 16:32:15;;;;;;;18.65;12.13;;;;;;;9.18;100.00;103445.25;10437612;28;20425;-60
2023/12/16 16:37:37;;;;;;;18.35;11.98;;;;;;;9.23;100.00;103466.00;10437527;28;20048;-60
2023/12/16 16:42:59;;;;;;;20.73;12.48;;;;;;;9.19;100.00;103469.38;10422581;28;20050;-60
2023/12/16 16:48:21;;;;;;;21.58;12.65;;;;;;;9.17;100.00;103473.63;10435322;28;20210;-61
2023/12/16 16:53:44;;;;;;;20.02;13.05;;;;;;;9.24;100.00;103475.47;10425514;28;20049;-60
2023/12/16 16:59:06;;;;;;;26.50;14.63;;;;;;;9.24;100.00;103490.97;10405593;28;20061;-60
2023/12/16 17:04:28;;;;;;;24.17;14.48;;;;;;;9.23;100.00;103489.25;10420068;28;20123;-59
2023/12/16 17:09:49;;;;;;;22.90;14.48;;;;;;;9.20;100.00;103489.19;10418984;28;20055;-60
2023/12/16 17:15:11;;;;;;;29.73;16.35;;;;;;;9.24;100.00;103475.47;10415060;28;21365;-60
2023/12/16 17:20:33;;;;;;;27.83;15.65;;;;;;;9.23;100.00;103487.53;10421360;28;20045;-60
2023/12/16 17:26:02;;;;;;;27.05;16.55;;;;;;;9.23;100.00;103494.44;10413535;28;20060;-60
2023/12/16 17:31:25;;;;;;;31.40;17.13;;;;;;;9.24;100.00;103476.38;10431495;28;20050;-60
2023/12/16 17:36:47;;;;;;;30.48;16.70;;;;;;;9.28;100.00;103464.38;10420929;28;20144;-60
2023/12/16 17:42:09;;;;;;;32.30;16.25;;;;;;;9.31;100.00;103464.41;10426914;28;20049;-60
2023/12/16 17:47:32;;;;;;;32.90;16.67;;;;;;;9.29;100.00;103469.56;10422210;28;20048;-61
2023/12/16 17:52:53;;;;;;;31.08;15.57;;;;;;;9.33;100.00;103476.53;10416978;28;20576;-61
2023/12/16 17:58:15;;;;;;;25.50;14.55;;;;;;;9.33;100.00;103470.47;10428246;28;20136;-60
2023/12/16 18:03:37;;;;;;;27.70;14.85;;;;;;;9.33;100.00;103476.53;10425136;28;20037;-60
2023/12/16 18:08:58;;;;;;;25.48;14.45;;;;;;;9.37;100.00;103477.44;10424838;28;20467;-60
2023/12/16 18:14:20;;;;;;;30.05;14.43;;;;;;;9.39;100.00;103489.56;10430922;28;20103;-60
2023/12/16 18:19:42;;;;;;;33.97;14.70;;;;;;;9.39;100.00;103486.09;10406735;28;20059;-60
2023/12/16 18:25:03;;;;;;;28.50;13.85;;;;;;;9.44;100.00;103481.88;10414338;28;20047;-60
2023/12/16 18:30:25;;;;;;;26.58;13.63;;;;;;;9.41;100.00;103489.59;10417792;28;20114;-60
2023/12/16 18:35:47;;;;;;;28.63;14.55;;;;;;;9.42;100.00;103483.56;10419620;28;20063;-60
2023/12/16 18:41:19;;;;;;;24.20;14.30;;;;;;;9.47;100.00;103471.59;10420609;28;20045;-60
2023/12/16 18:46:41;;;;;;;29.40;15.65;;;;;;;9.44;100.00;103476.72;10398748;28;20057;-61
2023/12/16 18:52:02;;;;;;;28.77;16.15;;;;;;;9.46;100.00;103481.06;10409751;28;20068;-60
2023/12/16 18:57:24;;;;;;;28.33;16.85;;;;;;;9.49;100.00;103477.66;10409596;28;20048;-60
2023/12/16 19:02:46;;;;;;;32.30;18.25;;;;;;;9.48;100.00;103479.38;10415293;28;20516;-60
2023/12/16 19:08:08;;;;;;;32.95;19.05;;;;;;;9.51;100.00;103475.97;10411306;28;20064;-60
2023/12/16 19:13:30;;;;;;;34.13;18.88;;;;;;;9.52;100.00;103477.72;10421718;28;20085;-61
2023/12/16 19:18:51;;;;;;;37.10;19.52;;;;;;;9.53;100.00;103466.53;10422466;28;20045;-60
2023/12/16 19:24:13;;;;;;;39.88;21.05;;;;;;;9.54;100.00;103466.53;10420062;28;20041;-60
2023/12/16 19:29:37;;;;;;;40.42;20.95;;;;;;;9.57;100.00;103478.66;10400719;28;20053;-60
2023/12/16 19:34:59;;;;;;;42.15;21.73;;;;;;;9.58;100.00;103467.47;10432619;28;20052;-60
2023/12/16 19:40:20;;;;;;;37.00;20.70;;;;;;;9.66;100.00;103477.09;10419532;28;20147;-61
2023/12/16 19:45:42;;;;;;;37.20;20.25;;;;;;;9.67;100.00;103475.41;10417676;28;20053;-61
2023/12/16 19:51:04;;;;;;;39.95;22.23;;;;;;;9.65;100.00;103488.28;10417727;28;20184;-60
2023/12/16 19:56:28;;;;;;;44.25;22.55;;;;;;;9.67;100.00;103485.75;10423851;28;20103;-61
2023/12/16 20:01:49;;;;;;;37.58;21.65;;;;;;;9.70;100.00;103488.38;10397400;28;20045;-61
2023/12/16 20:07:11;;;;;;;42.90;22.48;;;;;;;9.73;100.00;103483.22;10399079;28;20053;-61
2023/12/16 20:12:33;;;;;;;41.33;22.88;;;;;;;9.76;100.00;103498.81;10419677;28;20045;-60
2023/12/16 20:17:54;;;;;;;40.80;23.40;;;;;;;9.75;100.00;103489.31;10417325;28;20053;-60
2023/12/16 20:23:17;;;;;;;37.75;23.00;;;;;;;9.75;100.00;103487.59;10414928;28;22011;-61
2023/12/16 20:28:38;;;;;;;44.88;24.15;;;;;;;9.80;100.00;103488.53;10427330;28;20592;-60
2023/12/16 20:34:01;;;;;;;41.25;22.70;;;;;;;9.84;100.00;103492.03;10414199;28;20068;-62
2023/12/16 20:45:03;;;;;;;40.17;23.70;;;;;;;9.88;100.00;103489.53;10430430;28;20143;-60
2023/12/16 20:50:26;;;;;;;41.55;23.23;;;;;;;9.90;100.00;103493.03;10430160;28;20098;-60
2023/12/16 20:55:51;;;;;;;42.33;22.60;;;;;;;9.90;100.00;103492.13;10415916;28;20048;-61
2023/12/16 21:01:12;;;;;;;42.25;23.02;;;;;;;9.95;100.00;103472.38;10421404;28;20049;-61
2023/12/16 21:06:34;;;;;;;42.95;22.63;;;;;;;9.96;100.00;103461.22;10422930;28;20075;-61
2023/12/16 21:11:56;;;;;;;42.65;23.15;;;;;;;9.98;100.00;103464.69;10423293;28;20069;-61
2023/12/16 21:17:18;;;;;;;39.88;22.60;;;;;;;9.99;100.00;103471.59;10429831;28;20056;-61
2023/12/16 21:22:40;;;;;;;42.15;23.55;;;;;;;10.02;100.00;103466.44;10424786;28;20140;-61
2023/12/16 21:28:02;;;;;;;41.65;22.75;;;;;;;10.04;100.00;103469.94;10435527;28;20063;-61
2023/12/16 21:33:25;;;;;;;40.25;23.30;;;;;;;10.12;100.00;103489.06;10424989;28;20127;-60
2023/12/16 21:38:47;;;;;;;40.08;23.55;;;;;;;10.13;100.00;103464.91;10425904;28;20057;-61
2023/12/16 21:44:09;;;;;;;38.85;22.65;;;;;;;10.13;100.00;103464.91;10426689;28;20048;-60
2023/12/16 21:49:30;;;;;;;36.53;23.35;;;;;;;10.11;100.00;103446.78;10424444;28;20045;-61
2023/12/16 21:54:52;;;;;;;42.25;23.45;;;;;;;10.11;100.00;103435.56;10417064;28;20061;-61
2023/12/16 22:00:14;;;;;;;41.75;22.65;;;;;;;10.16;100.00;103433.94;10435529;28;20057;-60
2023/12/16 22:05:36;;;;;;;44.00;23.65;;;;;;;10.14;100.00;103427.88;10412177;28;20495;-61
2023/12/16 22:10:58;;;;;;;38.28;21.88;;;;;;;10.21;100.00;103447.78;10424596;28;20055;-60
2023/12/16 22:16:20;;;;;;;35.88;21.48;;;;;;;10.16;100.00;103446.88;10423952;28;20107;-61
2023/12/16 22:21:41;;;;;;;38.20;21.25;;;;;;;10.26;100.00;103445.25;10419632;28;20069;-60
2023/12/16 22:27:03;;;;;;;32.10;19.95;;;;;;;10.27;100.00;103447.88;10421791;28;20057;-60
2023/12/16 22:32:25;;;;;;;31.92;20.23;;;;;;;10.28;100.00;103448.72;10422882;28;20084;-60
2023/12/16 22:37:47;;;;;;;36.70;19.95;;;;;;;10.32;100.00;103456.56;10423870;28;20053;-60
2023/12/16 22:43:08;;;;;;;30.15;18.95;;;;;;;10.34;100.00;103439.34;10416133;28;20033;-61
2023/12/16 22:48:30;;;;;;;30.73;17.98;;;;;;;10.34;100.00;103431.59;10406430;28;20052;-61
2023/12/16 22:53:52;;;;;;;25.30;16.80;;;;;;;10.36;100.00;103432.47;10418691;28;20060;-61
2023/12/16 22:59:14;;;;;;;26.08;17.33;;;;;;;10.37;100.00;103418.69;10426260;28;20083;-61
2023/12/16 23:04:36;;;;;;;26.63;17.27;;;;;;;10.36;100.00;103421.25;10433048;28;20186;-60
2023/12/16 23:09:58;;;;;;;27.30;16.05;;;;;;;10.35;100.00;103433.31;10434791;28;20049;-61
2023/12/16 23:15:20;;;;;;;23.85;15.10;;;;;;;10.39;100.00;103423.88;10413688;28;20052;-62
2023/12/16 23:20:42;;;;;;;29.00;14.68;;;;;;;10.39;100.00;103416.97;10427178;28;20040;-60
2023/12/16 23:26:04;;;;;;;21.17;14.18;;;;;;;10.42;100.00;103424.78;10428140;28;20049;-61
2023/12/16 23:31:25;;;;;;;24.83;14.70;;;;;;;10.42;100.00;103424.78;10424308;28;20132;-61
2023/12/16 23:36:47;;;;;;;24.33;14.35;;;;;;;10.50;100.00;103420.56;10429357;22;20059;-58
2023/12/16 23:42:08;;;;;;;19.80;13.77;;;;;;;10.48;100.00;103432.63;10512458;28;20055;-59
2023/12/16 23:47:30;;;;;;;18.95;12.30;;;;;;;10.60;100.00;103437.94;10515649;28;20147;-58
2023/12/16 23:52:52;;;;;;;15.77;10.65;;;;;;;10.64;100.00;103434.53;10517624;28;20044;-59
2023/12/16 23:58:14;;;;;;;15.40;9.40;;;;;;;10.71;100.00;103444.09;10503357;28;20051;-61
